LTCM Airport Information

Runway Information
Airport Frequencies
Airport Navaids
Type VOR-DME Name Sinop Frequency 114000 KHZ
Type NDB Name Sinop Frequency 465 KHZ
Airport Weather Information & NOTAM
ADDS - METARS form results

(2326 UTC 18 June 2019)
Data provider http://aviationweather.gov/metar/data/
 
Forecast for: LTCM (SINOP AIRPORT , TR)
Text: TAF LTCM 181340Z 1815/1824 29012KT 9999 SCT010 SCT030
Forecast period: 1500 UTC 18 June 2019 to 0000 UTC 19 June 2019
Forecast type: FROM: standard forecast or significant change
Winds: from the WNW (290 degrees) at 14 MPH (12 knots; 6.2 m/s)
Visibility: 6 or more miles 10+ km)
Ceiling: at least 12,000 feet AGL
Clouds: scattered clouds at 1000 feet AGL
scattered clouds at 3000 feet AGL
Weather: no significant weather forecast for this period
Text: TEMPO 1815/1818 -SHRA FEW025CB BKN028
Forecast period: 1500 to 1800 UTC 18 June 2019
Forecast type: TEMPORARY: The following changes expected for less than half the time period
Visibility: missing
Ceiling: 2800 feet AGL
Clouds: few clouds at 2500 feet AGL
broken clouds at 2800 feet AGL
Weather: -SHRA  (light rain showers)